Time;durP1;ratioP1;P1;durP2;ratioP2;P2;SDS_P1;SDS_P2;PMS_P1;PMS_P2;Temp;Humidity;BMP_temperature;BMP_pressure;BME280_temperature;BME280_humidity;BME280_pressure;Samples;Min_cycle;Max_cycle;Signal;HPM_P1;HPM_P2
2022/12/13 00:01:19;;;;;;;20.10;11.98;;;;;;;-3.22;72.31;98819.19;6211588;23;20400;-81
2022/12/13 00:03:44;;;;;;;26.90;16.10;;;;;;;-3.22;72.37;98801.22;6212418;23;20393;-81
2022/12/13 00:06:11;;;;;;;27.73;14.37;;;;;;;-3.20;72.41;98788.38;6213476;23;20493;-79
2022/12/13 00:08:38;;;;;;;27.27;14.88;;;;;;;-3.29;72.82;98796.25;6212998;23;20164;-80
2022/12/13 00:11:06;;;;;;;29.35;16.80;;;;;;;-3.43;73.19;98796.53;6212381;23;20200;-80
2022/12/13 00:13:32;;;;;;;30.15;15.07;;;;;;;-3.42;73.21;98796.50;6213189;23;20197;-82
2022/12/13 00:15:59;;;;;;;20.05;13.55;;;;;;;-3.40;73.28;98799.06;6211413;23;20308;-82
2022/12/13 00:18:25;;;;;;;21.52;12.38;;;;;;;-3.38;73.22;98790.41;6213646;23;20230;-81
2022/12/13 00:20:51;;;;;;;23.08;12.90;;;;;;;-3.39;73.14;98798.16;6213374;23;20199;-80
2022/12/13 00:23:17;;;;;;;23.07;13.03;;;;;;;-3.41;73.18;98787.91;6187333;23;20566;-80
2022/12/13 00:25:43;;;;;;;23.85;14.88;;;;;;;-3.49;73.04;98788.97;6214593;23;20178;-81
2022/12/13 00:28:09;;;;;;;19.70;10.83;;;;;;;-3.51;73.06;98790.69;6214343;23;20185;-81
2022/12/13 00:30:35;;;;;;;23.50;11.83;;;;;;;-3.52;73.42;98792.44;6203207;22;20493;-82
2022/12/13 00:33:00;;;;;;;24.10;12.82;;;;;;;-3.48;73.46;98794.06;6205832;23;20536;-81
2022/12/13 00:35:26;;;;;;;22.67;11.85;;;;;;;-3.45;72.98;98788.88;6212081;23;20167;-81
2022/12/13 00:37:52;;;;;;;20.33;12.40;;;;;;;-3.44;73.10;98785.41;6213610;23;20531;-81
2022/12/13 00:40:17;;;;;;;16.50;9.67;;;;;;;-3.40;73.08;98781.94;6215044;23;20203;-81
2022/12/13 00:42:43;;;;;;;22.60;11.63;;;;;;;-3.35;73.05;98787.81;6214246;23;20175;-82
2022/12/13 00:45:08;;;;;;;19.47;11.07;;;;;;;-3.36;72.84;98780.97;6215174;23;20203;-81
2022/12/13 00:47:35;;;;;;;24.80;11.17;;;;;;;-3.37;72.64;98783.59;6214818;23;20257;-83
2022/12/13 00:50:02;;;;;;;30.77;14.23;;;;;;;-3.43;72.38;98783.69;6214990;23;20293;-81
2022/12/13 00:52:27;;;;;;;36.22;14.38;;;;;;;-3.47;73.07;98782.06;6214929;23;20184;-81
2022/12/13 00:54:53;;;;;;;26.70;13.77;;;;;;;-3.45;72.91;98775.19;6213583;23;20538;-81
2022/12/13 00:57:18;;;;;;;26.33;13.10;;;;;;;-3.47;72.89;98767.50;6186283;23;20167;-82
2022/12/13 00:59:44;;;;;;;20.80;10.63;;;;;;;-3.49;73.13;98765.84;6212970;23;20212;-81
2022/12/13 01:02:09;;;;;;;21.60;10.87;;;;;;;-3.50;73.00;98759.88;6215842;23;20171;-81
2022/12/13 01:04:35;;;;;;;37.45;20.10;;;;;;;-3.59;73.01;98760.91;6214127;23;20374;-81
2022/12/13 01:07:00;;;;;;;36.13;14.23;;;;;;;-3.62;73.35;98760.13;6215097;23;20235;-81
2022/12/13 01:09:28;;;;;;;21.50;12.77;;;;;;;-3.62;73.42;98767.81;6215011;23;20220;-81
2022/12/13 01:12:04;;;;;;;30.58;13.93;;;;;;;-3.60;73.63;98763.50;6217005;23;20338;-83
2022/12/13 01:14:30;;;;;;;30.58;14.70;;;;;;;-3.62;73.62;98757.53;6215740;23;20191;-82
2022/12/13 01:16:56;;;;;;;18.55;12.00;;;;;;;-3.60;73.70;98753.22;6219675;23;20164;-81
2022/12/13 01:19:24;;;;;;;29.00;12.65;;;;;;;-3.64;73.58;98749.06;6216047;23;20546;-82
2022/12/13 01:21:53;;;;;;;30.05;14.55;;;;;;;-3.73;73.85;98742.38;6215598;23;20171;-82
2022/12/13 01:24:20;;;;;;;26.73;13.90;;;;;;;-3.74;74.04;98734.72;6217204;23;20164;-82
2022/12/13 01:26:46;;;;;;;30.10;15.13;;;;;;;-3.73;73.65;98747.50;6217458;23;20218;-82
2022/12/13 01:29:11;;;;;;;23.55;12.75;;;;;;;-3.74;73.68;98732.16;6215457;23;20226;-81
2022/12/13 01:31:40;;;;;;;19.77;13.20;;;;;;;-3.75;73.89;98741.56;6217158;23;20168;-81
2022/12/13 01:34:09;;;;;;;31.75;17.70;;;;;;;-3.76;73.70;98742.44;6216428;23;20753;-82
2022/12/13 01:36:35;;;;;;;31.15;16.55;;;;;;;-3.89;74.41;98746.97;6215689;23;20156;-81
2022/12/13 01:39:01;;;;;;;27.08;15.30;;;;;;;-3.91;74.71;98748.72;6216867;23;20233;-81
2022/12/13 01:41:27;;;;;;;25.10;13.97;;;;;;;-3.93;74.53;98749.63;6215229;23;20175;-81
2022/12/13 01:44:05;;;;;;;21.17;13.15;;;;;;;-3.91;74.60;98753.00;6215346;23;20191;-81
2022/12/13 01:46:32;;;;;;;20.38;12.82;;;;;;;-3.84;74.72;98747.69;6215329;23;20175;-82
2022/12/13 01:49:11;;;;;;;29.65;14.23;;;;;;;-3.74;74.44;98760.38;6217950;23;20173;-81
2022/12/13 01:51:58;;;;;;;33.25;12.20;;;;;;;-3.68;74.18;98744.84;6216470;23;20223;-81
2022/12/13 01:54:32;;;;;;;24.65;12.73;;;;;;;-3.62;74.54;98744.72;6217121;23;20278;-81
2022/12/13 01:56:58;;;;;;;27.77;11.70;;;;;;;-3.55;74.01;98754.00;6217508;23;20174;-81
2022/12/13 01:59:25;;;;;;;18.00;10.77;;;;;;;-3.49;73.92;98746.16;6216686;23;20212;-81
2022/12/13 02:01:52;;;;;;;28.02;14.85;;;;;;;-3.51;73.53;98753.06;6215273;23;20169;-81
2022/12/13 02:04:24;;;;;;;30.05;11.68;;;;;;;-3.54;73.59;98760.81;6216671;23;20564;-82
2022/12/13 02:06:51;;;;;;;20.05;11.00;;;;;;;-3.54;73.61;98760.81;6215441;23;20176;-81
2022/12/13 02:09:18;;;;;;;28.60;14.52;;;;;;;-3.60;73.45;98754.06;6215363;23;20207;-81
2022/12/13 02:11:44;;;;;;;21.98;13.30;;;;;;;-3.63;73.61;98756.72;6216858;23;20186;-81
2022/12/13 02:14:10;;;;;;;31.58;14.63;;;;;;;-3.60;74.08;98750.66;6215996;23;20251;-81
2022/12/13 02:16:49;;;;;;;24.03;15.17;;;;;;;-3.59;73.83;98748.09;6215703;23;20224;-82
2022/12/13 02:19:14;;;;;;;25.50;12.50;;;;;;;-3.58;73.50;98734.38;6216389;23;20189;-82
2022/12/13 02:22:02;;;;;;;19.27;11.30;;;;;;;-3.55;73.76;98736.03;6214532;23;20191;-81
2022/12/13 02:25:04;;;;;;;22.73;13.27;;;;;;;-3.49;73.83;98733.31;6216863;23;20227;-82
2022/12/13 02:27:46;;;;;;;32.13;14.98;;;;;;;-3.43;73.52;98728.06;6217484;23;20173;-83
2022/12/13 02:30:15;;;;;;;20.05;12.23;;;;;;;-3.43;73.29;98717.81;6216187;23;20702;-83
2022/12/13 02:33:02;;;;;;;27.55;15.80;;;;;;;-3.46;73.34;98725.56;6212842;23;20195;-81
2022/12/13 02:35:41;;;;;;;32.17;19.52;;;;;;;-3.46;73.47;98717.00;6214852;23;20709;-81
2022/12/13 02:38:38;;;;;;;24.92;15.27;;;;;;;-3.68;73.68;98721.75;6216732;23;20218;-81
2022/12/13 02:41:21;;;;;;;22.88;14.18;;;;;;;-3.78;73.69;98721.06;6215577;23;20209;-81
2022/12/13 02:44:00;;;;;;;29.85;13.95;;;;;;;-3.78;74.19;98726.22;6214256;23;20186;-81
2022/12/13 02:46:30;;;;;;;34.28;14.55;;;;;;;-3.73;73.95;98713.28;6217336;23;20448;-82
2022/12/13 02:48:57;;;;;;;33.33;16.23;;;;;;;-3.77;73.86;98712.53;6214511;23;20177;-81
2022/12/13 02:51:25;;;;;;;21.48;11.38;;;;;;;-3.77;73.81;98712.53;6216351;23;20291;-81
2022/12/13 02:53:50;;;;;;;32.30;13.77;;;;;;;-3.80;73.76;98708.28;6216571;23;20201;-81
2022/12/13 02:56:16;;;;;;;21.80;11.60;;;;;;;-3.80;73.77;98713.44;6216106;23;20641;-83
2022/12/13 02:58:49;;;;;;;31.90;17.42;;;;;;;-3.88;73.67;98710.16;6217234;23;20173;-83
2022/12/13 03:01:24;;;;;;;24.42;12.65;;;;;;;-3.92;73.89;98702.56;6215852;23;20175;-82
2022/12/13 03:04:11;;;;;;;31.40;16.20;;;;;;;-4.04;74.21;98701.94;6214843;23;20717;-82
2022/12/13 03:07:11;;;;;;;29.75;14.63;;;;;;;-4.16;74.44;98714.13;6215768;23;20176;-81
2022/12/13 03:09:49;;;;;;;18.55;11.90;;;;;;;-4.19;74.23;98704.78;6217197;23;20196;-82
2022/12/13 03:15:17;;;;;;;20.38;11.60;;;;;;;-4.18;74.64;98685.13;6217159;23;20186;-82
2022/12/13 03:17:50;;;;;;;20.83;11.95;;;;;;;-4.17;74.47;98691.94;6215961;23;20197;-82
2022/12/13 03:20:23;;;;;;;25.08;10.88;;;;;;;-4.18;74.20;98680.84;6189498;23;20193;-83
2022/12/13 03:22:50;;;;;;;22.70;11.88;;;;;;;-4.13;74.68;98685.84;6189780;23;20180;-82
2022/12/13 03:25:16;;;;;;;23.00;12.50;;;;;;;-4.10;74.29;98680.69;6214758;23;20184;-81
2022/12/13 03:27:47;;;;;;;31.45;14.73;;;;;;;-4.07;74.36;98678.06;6215208;23;20177;-82
2022/12/13 03:30:20;;;;;;;22.23;11.15;;;;;;;-4.11;74.05;98681.56;6216571;23;20241;-81
2022/12/13 03:32:46;;;;;;;33.17;14.02;;;;;;;-4.13;74.28;98675.59;6214889;23;20198;-82
2022/12/13 03:35:12;;;;;;;35.90;21.00;;;;;;;-4.07;74.39;98676.34;6213530;23;20416;-81
2022/12/13 03:37:40;;;;;;;34.35;14.95;;;;;;;-4.02;74.63;98684.78;6190450;23;20187;-83
2022/12/13 03:40:07;;;;;;;21.97;11.97;;;;;;;-3.95;74.75;98679.53;6215101;23;20199;-82
2022/12/13 03:42:32;;;;;;;19.58;11.88;;;;;;;-3.94;74.67;98676.94;6215922;23;20173;-82
2022/12/13 03:44:58;;;;;;;18.40;10.87;;;;;;;-3.91;74.11;98687.16;6216087;23;20868;-81
2022/12/13 03:47:23;;;;;;;26.13;13.50;;;;;;;-3.88;74.19;98683.69;6214817;23;20178;-81
2022/12/13 03:49:49;;;;;;;23.73;11.30;;;;;;;-3.88;74.43;98681.13;6214770;23;20191;-81
2022/12/13 03:52:14;;;;;;;25.43;10.70;;;;;;;-3.91;74.17;98679.44;6188660;23;20242;-81
2022/12/13 03:54:39;;;;;;;30.20;12.87;;;;;;;-3.91;74.06;98681.19;6213137;23;20659;-81
2022/12/13 03:57:05;;;;;;;23.00;11.17;;;;;;;-3.92;74.04;98676.91;6215782;23;20249;-82
2022/12/13 03:59:30;;;;;;;25.43;14.23;;;;;;;-3.90;73.92;98678.56;6214085;23;20214;-82
2022/12/13 04:01:56;;;;;;;20.40;12.63;;;;;;;-3.89;73.89;98682.84;6214813;23;20177;-81
2022/12/13 04:04:21;;;;;;;18.80;9.40;;;;;;;-3.89;74.03;98689.66;6215963;23;20501;-82
2022/12/13 04:06:46;;;;;;;24.03;13.27;;;;;;;-3.89;73.95;98680.28;6215103;23;20487;-83
2022/12/13 04:09:12;;;;;;;28.87;14.33;;;;;;;-3.87;73.73;98678.50;6214339;23;20359;-82
2022/12/13 04:14:21;;;;;;;26.42;12.07;;;;;;;-3.87;73.96;98685.34;6189063;23;20266;-81
2022/12/13 04:16:47;;;;;;;34.17;12.10;;;;;;;-3.86;73.44;98681.91;6217843;23;20189;-81
2022/12/13 04:19:12;;;;;;;21.57;12.30;;;;;;;-3.85;73.79;98675.91;6215898;23;20193;-82
2022/12/13 04:21:37;;;;;;;20.03;13.10;;;;;;;-3.87;73.52;98683.63;6212285;23;20165;-82
2022/12/13 04:24:03;;;;;;;18.87;9.47;;;;;;;-3.87;73.65;98680.22;6215945;23;20162;-82
2022/12/13 04:26:28;;;;;;;19.17;12.33;;;;;;;-3.93;73.17;98682.91;6215516;23;20179;-82
2022/12/13 04:28:54;;;;;;;24.43;12.20;;;;;;;-3.96;73.66;98677.84;6177874;23;20222;-81
2022/12/13 04:31:20;;;;;;;17.03;11.03;;;;;;;-4.01;73.29;98683.91;6216015;23;20680;-82
2022/12/13 04:33:45;;;;;;;17.93;10.70;;;;;;;-4.07;73.39;98678.06;6218518;23;20169;-81
2022/12/13 04:36:10;;;;;;;24.20;11.10;;;;;;;-4.10;73.79;98680.69;6225484;23;20301;-82
2022/12/13 04:38:36;;;;;;;19.27;11.50;;;;;;;-4.14;73.87;98677.31;6226094;23;20185;-83
2022/12/13 04:41:14;;;;;;;22.60;12.50;;;;;;;-4.16;73.88;98684.19;6226428;23;20204;-81
2022/12/13 04:43:39;;;;;;;26.73;11.13;;;;;;;-4.17;74.07;98679.13;6225243;23;20168;-83
2022/12/13 04:46:05;;;;;;;20.63;11.07;;;;;;;-4.17;73.92;98681.69;6226227;23;20362;-82
2022/12/13 04:48:31;;;;;;;15.40;8.80;;;;;;;-4.18;73.90;98682.56;6226069;23;20758;-83
2022/12/13 04:50:57;;;;;;;19.50;9.45;;;;;;;-4.17;73.69;98671.41;6226750;23;20251;-82
2022/12/13 04:53:24;;;;;;;26.27;10.25;;;;;;;-4.19;73.57;98666.31;6225992;23;20200;-82
2022/12/13 04:55:49;;;;;;;18.27;9.40;;;;;;;-4.17;73.92;98674.00;6220195;23;20180;-81
2022/12/13 04:58:15;;;;;;;15.70;9.97;;;;;;;-4.18;73.71;98667.19;6216555;23;20174;-83
2022/12/13 05:00:40;;;;;;;23.70;13.50;;;;;;;-4.25;73.48;98671.56;6215933;23;20509;-81
2022/12/13 05:03:06;;;;;;;28.27;14.40;;;;;;;-4.40;73.58;98664.16;6216437;23;20174;-81
2022/12/13 05:05:31;;;;;;;28.13;13.20;;;;;;;-4.48;73.77;98664.31;6216172;23;20172;-81
2022/12/13 05:07:57;;;;;;;25.70;10.93;;;;;;;-4.51;74.01;98672.03;6220544;23;20207;-82
2022/12/13 05:10:22;;;;;;;19.47;9.33;;;;;;;-4.51;73.81;98666.91;6224012;23;20220;-82
2022/12/13 05:12:47;;;;;;;26.10;10.87;;;;;;;-4.54;74.18;98672.94;6221863;23;20207;-82
2022/12/13 05:15:13;;;;;;;27.87;13.30;;;;;;;-4.68;74.23;98659.53;6220525;23;20263;-82
2022/12/13 05:17:38;;;;;;;21.00;12.43;;;;;;;-4.71;74.53;98650.19;6220986;23;20251;-82
2022/12/13 05:20:04;;;;;;;19.73;8.60;;;;;;;-4.68;74.59;98652.69;6221610;23;20201;-81
2022/12/13 05:22:30;;;;;;;31.43;11.00;;;;;;;-4.64;74.37;98655.19;6221929;23;20173;-81
2022/12/13 05:24:55;;;;;;;22.10;11.50;;;;;;;-4.60;73.95;98654.28;6196544;23;20522;-81
2022/12/13 05:27:21;;;;;;;20.47;11.73;;;;;;;-4.59;74.16;98648.25;6222145;23;20157;-82
2022/12/13 05:29:46;;;;;;;21.43;11.07;;;;;;;-4.58;74.00;98644.84;6221719;23;20261;-83
2022/12/13 05:32:11;;;;;;;14.40;8.40;;;;;;;-4.53;74.15;98643.03;6219086;23;20206;-82
2022/12/13 05:34:37;;;;;;;29.43;15.23;;;;;;;-4.49;73.96;98636.97;6221325;23;20460;-83
2022/12/13 05:37:02;;;;;;;23.63;11.57;;;;;;;-4.46;74.13;98639.47;6224301;23;20410;-82
2022/12/13 05:39:28;;;;;;;21.60;11.27;;;;;;;-4.46;74.00;98640.31;6218836;23;20187;-83
2022/12/13 05:41:54;;;;;;;22.40;12.83;;;;;;;-4.43;74.34;98647.09;6218900;23;20430;-83
2022/12/13 05:44:20;;;;;;;19.77;10.82;;;;;;;-4.40;73.93;98646.19;6220420;23;20246;-82
2022/12/13 05:46:45;;;;;;;24.20;10.70;;;;;;;-4.37;74.06;98641.88;6222382;23;20252;-82
2022/12/13 05:49:11;;;;;;;29.73;11.93;;;;;;;-4.32;73.99;98647.78;6220296;23;20239;-82
2022/12/13 05:51:36;;;;;;;23.20;10.20;;;;;;;-4.26;73.57;98651.94;6214491;23;20171;-82
2022/12/13 05:54:02;;;;;;;25.00;11.00;;;;;;;-4.23;73.40;98649.31;6215556;23;20204;-82
2022/12/13 05:56:27;;;;;;;21.77;13.40;;;;;;;-4.25;73.64;98644.19;6214646;23;20246;-82
2022/12/13 05:58:53;;;;;;;24.43;10.87;;;;;;;-4.28;73.27;98638.28;6216370;23;20161;-82
2022/12/13 06:01:19;;;;;;;26.03;11.10;;;;;;;-4.34;73.61;98649.50;6215317;23;20176;-82
2022/12/13 06:03:44;;;;;;;18.40;9.40;;;;;;;-4.41;73.79;98640.25;6217044;23;20401;-82
2022/12/13 06:06:11;;;;;;;23.77;12.30;;;;;;;-4.44;73.71;98655.69;6216140;23;20198;-82
2022/12/13 06:08:37;;;;;;;21.30;11.93;;;;;;;-4.45;73.32;98646.31;6213338;23;20573;-82
2022/12/13 06:11:06;;;;;;;15.00;9.20;;;;;;;-4.45;73.52;98651.44;6214065;23;20434;-82
2022/12/13 06:13:31;;;;;;;18.42;8.82;;;;;;;-4.44;73.22;98650.56;6215919;23;20447;-82
2022/12/13 06:16:04;;;;;;;28.30;14.27;;;;;;;-4.43;73.41;98654.78;6213887;23;20172;-82
2022/12/13 06:18:31;;;;;;;23.25;11.40;;;;;;;-4.41;73.72;98658.19;6186906;23;20503;-83
2022/12/13 06:20:59;;;;;;;23.15;11.13;;;;;;;-4.41;73.07;98659.91;6216223;23;20199;-82
2022/12/13 06:23:25;;;;;;;19.10;12.60;;;;;;;-4.42;73.61;98658.22;6214604;23;20540;-82
2022/12/13 06:25:51;;;;;;;24.15;9.55;;;;;;;-4.40;73.38;98654.78;6215734;23;20658;-82
2022/12/13 06:28:16;;;;;;;15.97;11.13;;;;;;;-4.38;73.27;98652.16;6214584;23;20181;-82
2022/12/13 06:30:42;;;;;;;22.30;10.70;;;;;;;-4.38;73.15;98659.84;6212432;23;20213;-83
2022/12/13 06:33:07;;;;;;;18.20;8.20;;;;;;;-4.38;73.18;98658.13;6210820;23;20204;-83
2022/12/13 06:35:33;;;;;;;15.30;8.90;;;;;;;-4.36;72.86;98666.63;6210065;23;20181;-83
2022/12/13 06:37:58;;;;;;;22.97;11.80;;;;;;;-4.33;73.05;98661.44;6184846;23;20188;-85
2022/12/13 06:40:24;;;;;;;20.43;11.00;;;;;;;-4.33;72.89;98669.13;6210823;23;20391;-83
2022/12/13 06:42:50;;;;;;;20.53;8.70;;;;;;;-4.29;72.88;98665.66;6210827;23;20398;-83
2022/12/13 06:45:15;;;;;;;18.03;9.70;;;;;;;-4.26;72.89;98665.59;6209704;23;20172;-83
2022/12/13 06:47:41;;;;;;;14.70;8.90;;;;;;;-4.24;72.90;98662.97;6210762;23;20243;-83
2022/12/13 06:50:06;;;;;;;21.77;11.60;;;;;;;-4.28;72.74;98659.66;6211500;23;20211;-83
2022/12/13 06:52:32;;;;;;;23.77;11.80;;;;;;;-4.37;72.74;98659.00;6211145;23;20196;-83
2022/12/13 06:54:58;;;;;;;24.83;12.93;;;;;;;-4.41;72.92;98649.66;6209386;23;20183;-83
2022/12/13 06:57:23;;;;;;;15.80;9.07;;;;;;;-4.45;73.15;98656.56;6209664;23;20172;-83
2022/12/13 06:59:48;;;;;;;18.13;10.60;;;;;;;-4.50;72.91;98663.50;6217444;23;20202;-83
2022/12/13 07:02:14;;;;;;;20.23;11.30;;;;;;;-4.57;72.99;98659.34;6211892;23;20172;-83
2022/12/13 07:04:40;;;;;;;16.03;8.00;;;;;;;-4.63;73.16;98665.41;6210834;23;20174;-83
2022/12/13 07:07:05;;;;;;;14.23;11.07;;;;;;;-4.67;73.08;98668.91;6211322;23;20873;-83
2022/12/13 07:09:31;;;;;;;15.47;9.60;;;;;;;-4.69;73.48;98674.06;6210506;23;20194;-83
2022/12/13 07:11:57;;;;;;;21.58;10.02;;;;;;;-4.67;73.98;98672.31;6210944;23;20171;-83
2022/12/13 07:14:22;;;;;;;21.35;13.30;;;;;;;-4.80;73.62;98681.09;6211196;23;20199;-82
2022/12/13 07:16:48;;;;;;;25.10;11.07;;;;;;;-4.91;73.05;98680.41;6208898;23;20516;-83
2022/12/13 07:19:13;;;;;;;28.37;12.07;;;;;;;-4.92;73.73;98683.84;6211414;23;20173;-83
2022/12/13 07:21:39;;;;;;;26.53;11.73;;;;;;;-4.95;73.67;98681.31;6210863;23;20186;-83
2022/12/13 07:24:05;;;;;;;22.93;12.20;;;;;;;-5.03;73.87;98678.88;6210868;23;20150;-83
2022/12/13 07:26:30;;;;;;;22.25;13.38;;;;;;;-5.02;74.05;98675.47;6210943;23;20163;-82
2022/12/13 07:28:56;;;;;;;38.80;11.37;;;;;;;-4.97;74.12;98683.94;6208908;23;20170;-83
2022/12/13 07:31:23;;;;;;;20.10;10.37;;;;;;;-4.92;73.56;98686.41;6210977;23;20629;-82
2022/12/13 07:33:48;;;;;;;30.75;14.82;;;;;;;-5.06;74.06;98689.19;6208787;23;20163;-83
2022/12/13 07:36:19;;;;;;;20.33;10.07;;;;;;;-4.99;73.68;98684.81;6209199;23;20189;-82
2022/12/13 07:38:50;;;;;;;19.23;10.18;;;;;;;-4.92;74.25;98691.50;6210260;23;20741;-82
2022/12/13 07:41:15;;;;;;;11.13;5.38;;;;;;;-4.85;73.75;98682.88;6208428;23;20173;-83
2022/12/13 07:43:41;;;;;;;15.93;8.60;;;;;;;-4.83;73.58;98686.25;6208770;23;20223;-83
2022/12/13 07:46:07;;;;;;;29.70;14.60;;;;;;;-4.79;73.73;98692.16;6211090;23;20498;-83
2022/12/13 07:48:32;;;;;;;21.20;10.98;;;;;;;-4.77;73.23;98695.56;6210931;23;20684;-83
2022/12/13 07:51:06;;;;;;;17.63;10.50;;;;;;;-4.74;73.67;98700.63;6210245;23;20178;-83
2022/12/13 07:53:32;;;;;;;24.40;9.45;;;;;;;-4.74;73.51;98695.50;6211020;23;20265;-82
2022/12/13 07:56:02;;;;;;;24.52;11.43;;;;;;;-4.70;73.66;98702.25;6208665;23;20162;-82
2022/12/13 07:58:29;;;;;;;25.20;13.50;;;;;;;-4.73;73.11;98692.06;6211409;23;20462;-83
2022/12/13 08:00:59;;;;;;;23.50;11.00;;;;;;;-4.74;73.28;98695.50;6210376;23;20611;-83
2022/12/13 08:03:24;;;;;;;19.17;9.30;;;;;;;-4.71;73.33;98701.41;6208994;23;20761;-82
2022/12/13 08:06:23;;;;;;;24.40;12.90;;;;;;;-4.63;73.80;98708.13;6209298;23;20158;-83
2022/12/13 08:08:50;;;;;;;21.17;9.48;;;;;;;-4.53;73.03;98717.38;6207964;23;20166;-83
2022/12/13 08:11:16;;;;;;;21.95;10.13;;;;;;;-4.50;72.93;98715.59;6210884;23;20278;-82
2022/12/13 08:13:41;;;;;;;22.35;11.75;;;;;;;-4.43;72.59;98706.06;6210799;23;20574;-83
2022/12/13 08:16:09;;;;;;;22.80;11.83;;;;;;;-4.38;72.62;98713.69;6207641;23;20515;-83
2022/12/13 08:18:35;;;;;;;22.40;10.25;;;;;;;-4.32;72.78;98711.88;6210996;23;20178;-83
2022/12/13 08:21:03;;;;;;;23.93;10.00;;;;;;;-4.25;72.57;98710.84;6209976;23;20212;-83
2022/12/13 08:23:30;;;;;;;23.20;10.25;;;;;;;-4.19;72.29;98706.50;6210405;23;20162;-83
2022/12/13 08:25:56;;;;;;;25.45;10.85;;;;;;;-4.17;72.40;98708.16;6210775;23;20241;-83
2022/12/13 08:28:23;;;;;;;19.50;13.43;;;;;;;-4.11;72.26;98705.47;6210692;23;20150;-83
2022/12/13 08:30:50;;;;;;;22.73;11.05;;;;;;;-4.08;72.33;98715.69;6208563;23;20425;-83
2022/12/13 08:33:15;;;;;;;21.55;10.35;;;;;;;-4.07;71.99;98708.84;6210946;23;20165;-82
2022/12/13 08:35:40;;;;;;;23.40;10.30;;;;;;;-4.07;71.94;98703.72;6209959;23;20481;-83
2022/12/13 08:38:06;;;;;;;25.00;11.10;;;;;;;-4.08;72.43;98707.13;6210514;23;20248;-82
2022/12/13 08:40:32;;;;;;;24.53;13.13;;;;;;;-4.06;72.23;98706.22;6210455;23;20174;-82
2022/12/13 08:48:27;;;;;;;23.88;10.25;;;;;;;-3.96;72.22;98701.78;6206769;23;20178;-82
2022/12/13 08:50:53;;;;;;;22.43;10.67;;;;;;;-3.94;72.09;98699.16;6207262;23;20186;-83
2022/12/13 08:53:19;;;;;;;34.33;12.27;;;;;;;-3.89;72.11;98707.63;6209982;23;20686;-83
2022/12/13 08:55:44;;;;;;;17.33;10.00;;;;;;;-3.87;72.24;98704.16;6206228;23;20157;-83
2022/12/13 08:58:10;;;;;;;21.27;9.40;;;;;;;-3.83;71.99;98704.97;6210570;23;20161;-82
2022/12/13 09:00:36;;;;;;;22.00;11.03;;;;;;;-3.85;71.74;98702.41;6209898;23;20205;-83
2022/12/13 09:03:03;;;;;;;15.65;13.15;;;;;;;-3.85;71.78;98702.41;6211773;23;20643;-83
2022/12/13 09:05:29;;;;;;;23.70;12.20;;;;;;;-3.85;71.95;98707.53;6186302;23;20251;-84
2022/12/13 09:07:55;;;;;;;25.07;10.40;;;;;;;-3.87;71.27;98706.72;6211622;23;20158;-83
2022/12/13 09:10:21;;;;;;;24.25;11.98;;;;;;;-3.94;71.55;98702.59;6212408;23;20178;-83
2022/12/13 09:12:47;;;;;;;24.42;11.05;;;;;;;-3.95;71.74;98710.31;6212337;23;20180;-83
2022/12/13 09:15:13;;;;;;;28.00;10.53;;;;;;;-3.96;71.68;98712.03;6211960;23;20799;-83
2022/12/13 09:17:38;;;;;;;17.20;8.27;;;;;;;-3.96;71.71;98704.34;6211769;23;20154;-83
2022/12/13 09:20:06;;;;;;;22.33;13.17;;;;;;;-3.92;71.36;98705.13;6210269;23;20174;-83
2022/12/13 09:22:32;;;;;;;18.92;9.85;;;;;;;-3.88;71.32;98707.59;6212510;23;20150;-83
2022/12/13 09:24:57;;;;;;;12.93;9.10;;;;;;;-3.83;71.32;98710.09;6210724;23;20695;-83
2022/12/13 09:27:23;;;;;;;19.02;10.98;;;;;;;-3.84;71.07;98706.66;6211877;23;20154;-83
2022/12/13 09:29:49;;;;;;;22.27;12.47;;;;;;;-3.83;71.20;98708.38;6210387;23;20184;-83
2022/12/13 09:32:15;;;;;;;23.27;12.80;;;;;;;-3.84;70.75;98716.06;6212460;23;20240;-83
2022/12/13 09:34:40;;;;;;;18.57;10.20;;;;;;;-3.78;70.77;98718.50;6213115;23;20401;-83
2022/12/13 09:37:05;;;;;;;17.80;9.97;;;;;;;-3.76;70.66;98718.50;6211817;23;20240;-83
2022/12/13 09:39:31;;;;;;;16.03;9.60;;;;;;;-3.70;70.77;98724.38;6213631;23;20387;-83
2022/12/13 09:41:57;;;;;;;15.93;9.00;;;;;;;-3.67;70.60;98720.88;6186122;23;20158;-83
2022/12/13 09:44:30;;;;;;;16.42;8.82;;;;;;;-3.61;70.50;98711.34;6213632;23;20154;-83
2022/12/13 09:46:57;;;;;;;21.60;11.00;;;;;;;-3.52;70.15;98707.72;6213105;23;20521;-83
2022/12/13 09:49:36;;;;;;;17.77;9.25;;;;;;;-3.40;69.88;98704.91;6213146;23;20542;-83
2022/12/13 09:52:05;;;;;;;17.92;9.48;;;;;;;-3.26;69.97;98703.75;6183818;23;20231;-83
2022/12/13 09:54:32;;;;;;;17.90;9.15;;;;;;;-3.08;69.26;98702.47;6213181;23;20548;-83
2022/12/13 09:56:57;;;;;;;13.52;9.25;;;;;;;-2.94;68.75;98695.31;6184424;23;20162;-83
2022/12/13 09:59:27;;;;;;;25.07;10.03;;;;;;;-2.85;68.45;98692.50;6209528;23;20189;-83
2022/12/13 10:01:54;;;;;;;15.77;9.55;;;;;;;-2.79;68.03;98684.63;6207462;23;20154;-83
2022/12/13 10:04:20;;;;;;;18.48;9.85;;;;;;;-2.72;67.78;98686.19;6208892;23;20146;-83
2022/12/13 10:06:49;;;;;;;17.67;9.67;;;;;;;-2.62;67.59;98679.09;6208508;23;20165;-83
2022/12/13 10:09:15;;;;;;;17.45;9.80;;;;;;;-2.50;67.54;98678.78;6206346;23;20240;-83
2022/12/13 10:11:49;;;;;;;15.97;9.87;;;;;;;-2.39;66.78;98677.66;6205492;23;20162;-83
2022/12/13 10:14:35;;;;;;;20.50;9.85;;;;;;;-2.34;66.82;98676.66;6181808;23;20193;-83
2022/12/13 10:17:06;;;;;;;24.35;11.43;;;;;;;-2.43;66.11;98674.34;6209428;23;20216;-84
2022/12/13 10:19:39;;;;;;;19.70;11.38;;;;;;;-2.47;66.65;98670.13;6210654;23;20213;-83
2022/12/13 10:22:10;;;;;;;16.27;9.77;;;;;;;-2.49;66.59;98675.31;6208448;23;20158;-83
2022/12/13 10:24:47;;;;;;;12.18;8.07;;;;;;;-2.46;66.49;98677.81;6180459;23;20532;-83
2022/12/13 10:27:16;;;;;;;18.23;11.40;;;;;;;-2.44;66.62;98680.34;6206255;23;20154;-83
2022/12/13 10:30:20;;;;;;;16.90;12.55;;;;;;;-2.40;66.08;98681.97;6180613;23;20178;-84
2022/12/13 10:32:54;;;;;;;16.85;8.55;;;;;;;-2.38;66.34;98676.75;6159698;23;20161;-83
2022/12/13 10:35:29;;;;;;;31.92;17.20;;;;;;;-2.37;66.49;98678.47;6208111;23;20412;-83
2022/12/13 10:37:58;;;;;;;18.73;12.45;;;;;;;-2.35;66.32;98674.09;6186409;23;20192;-83
2022/12/13 10:40:36;;;;;;;17.77;11.00;;;;;;;-2.40;66.33;98675.94;6212689;23;20624;-83
2022/12/13 10:43:05;;;;;;;20.17;10.70;;;;;;;-2.43;66.36;98676.03;6185418;23;20216;-83
2022/12/13 10:45:30;;;;;;;26.85;11.63;;;;;;;-2.45;66.45;98671.78;6213189;23;20158;-83
2022/12/13 10:47:56;;;;;;;19.00;9.80;;;;;;;-2.46;66.50;98669.25;6211953;23;20190;-84
2022/12/13 10:50:25;;;;;;;18.63;10.27;;;;;;;-2.46;66.20;98669.25;6212151;23;20177;-83
2022/12/13 10:52:51;;;;;;;18.35;9.45;;;;;;;-2.45;66.57;98679.50;6211929;23;20186;-83
2022/12/13 10:55:34;;;;;;;18.20;11.60;;;;;;;-2.38;66.34;98674.19;6184186;23;20151;-83
2022/12/13 10:58:05;;;;;;;19.13;11.05;;;;;;;-2.31;66.26;98674.00;6207963;23;20542;-83
2022/12/13 11:00:36;;;;;;;24.67;12.50;;;;;;;-2.23;66.17;98672.06;6207244;23;20661;-83
2022/12/13 11:03:02;;;;;;;19.63;12.90;;;;;;;-2.17;65.83;98665.06;6204044;23;20168;-83
2022/12/13 11:05:33;;;;;;;20.67;11.30;;;;;;;-2.14;65.42;98659.84;6207027;23;20154;-83
2022/12/13 11:08:17;;;;;;;19.50;10.52;;;;;;;-2.09;65.35;98666.53;6205284;23;20593;-83
2022/12/13 11:10:43;;;;;;;24.55;10.35;;;;;;;-2.09;65.59;98661.38;6205313;23;20390;-83
2022/12/13 11:13:23;;;;;;;19.93;11.50;;;;;;;-2.12;65.65;98656.34;6212027;23;20184;-83
2022/12/13 11:15:54;;;;;;;21.40;10.65;;;;;;;-2.13;65.70;98658.94;6209063;23;20186;-83
2022/12/13 11:18:23;;;;;;;19.58;9.23;;;;;;;-2.10;65.96;98654.56;6210078;23;20154;-83
2022/12/13 11:21:01;;;;;;;22.77;13.38;;;;;;;-2.08;65.68;98647.66;6210697;23;20178;-83
2022/12/13 11:23:43;;;;;;;25.75;13.98;;;;;;;-2.02;65.60;98649.22;6214124;23;20146;-83
2022/12/13 11:26:19;;;;;;;18.92;10.48;;;;;;;-2.05;65.51;98652.72;6214021;23;20215;-83
2022/12/13 11:29:10;;;;;;;19.17;11.13;;;;;;;-2.02;65.79;98646.66;6212259;23;20158;-83
2022/12/13 11:32:08;;;;;;;18.08;12.05;;;;;;;-1.93;65.44;98650.69;6187375;23;20629;-83
2022/12/13 11:35:15;;;;;;;20.70;11.23;;;;;;;-1.94;65.32;98643.84;6205657;23;20166;-83
2022/12/13 11:38:15;;;;;;;20.02;10.60;;;;;;;-1.93;65.51;98640.38;6180057;23;20209;-83